Time;durP1;ratioP1;P1;durP2;ratioP2;P2;SDS_P1;SDS_P2;PMS_P1;PMS_P2;Temp;Humidity;BMP_temperature;BMP_pressure;BME280_temperature;BME280_humidity;BME280_pressure;Samples;Min_cycle;Max_cycle;Signal;HPM_P1;HPM_P2
2022/08/13 00:00:38;;;;;;;14.23;6.63;;;22.60;99.90;;;;;;5015890;28;20125;-55
2022/08/13 00:03:13;;;;;;;11.75;5.88;;;22.60;99.90;;;;;;5028839;28;20100;-56
2022/08/13 00:06:02;;;;;;;10.75;5.82;;;22.50;99.90;;;;;;5013890;28;20393;-55
2022/08/13 00:08:28;;;;;;;11.80;5.90;;;22.40;99.90;;;;;;5028652;28;20076;-55
2022/08/13 00:10:55;;;;;;;13.85;6.45;;;22.40;99.90;;;;;;5029218;28;20053;-55
2022/08/13 00:13:25;;;;;;;14.27;7.00;;;22.40;99.90;;;;;;5028712;28;20050;-55
2022/08/13 00:16:10;;;;;;;16.38;6.63;;;22.40;99.90;;;;;;5028187;28;20041;-53
2022/08/13 00:18:38;;;;;;;13.57;6.22;;;22.40;99.90;;;;;;5029069;28;20111;-54
2022/08/13 00:21:07;;;;;;;18.77;7.47;;;22.40;99.90;;;;;;5029370;28;20072;-55
2022/08/13 00:23:37;;;;;;;17.65;6.60;;;22.40;99.90;;;;;;5028931;28;20048;-54
2022/08/13 00:26:25;;;;;;;16.95;7.03;;;22.30;99.90;;;;;;5025982;28;20052;-55
2022/08/13 00:29:00;;;;;;;16.55;6.88;;;22.20;99.90;;;;;;5029048;28;20041;-56
2022/08/13 00:31:27;;;;;;;11.10;6.40;;;22.20;99.90;;;;;;5029183;28;20057;-55
2022/08/13 00:33:58;;;;;;;12.95;6.82;;;22.20;99.90;;;;;;5028658;28;20464;-54
2022/08/13 00:36:25;;;;;;;16.13;7.75;;;22.10;99.90;;;;;;5029010;28;20504;-52
2022/08/13 00:39:05;;;;;;;15.40;7.13;;;22.10;99.90;;;;;;5026417;28;20496;-51
2022/08/13 00:41:37;;;;;;;15.30;6.80;;;22.10;99.90;;;;;;5029330;28;20376;-51
2022/08/13 00:44:24;;;;;;;17.65;7.30;;;22.10;99.90;;;;;;5028518;28;20045;-50
2022/08/13 00:48:41;;;;;;;15.55;7.00;;;22.00;99.90;;;;;;5028829;28;20053;-51
2022/08/13 00:49:46;;;;;;;17.77;6.60;;;22.00;99.90;;;;;;5027516;28;20408;-55
2022/08/13 00:52:30;;;;;;;9.93;6.10;;;21.90;99.90;;;;;;5011256;28;20050;-54
2022/08/13 00:55:00;;;;;;;17.63;6.22;;;21.70;99.90;;;;;;5022581;28;20050;-55
2022/08/13 00:57:28;;;;;;;11.73;6.47;;;21.70;99.90;;;;;;5012782;28;20110;-55
2022/08/13 00:59:55;;;;;;;13.32;6.85;;;21.70;99.90;;;;;;5023972;28;20041;-55
2022/08/13 01:02:23;;;;;;;16.05;6.65;;;21.70;99.90;;;;;;5028745;28;20045;-54
2022/08/13 01:05:00;;;;;;;15.20;6.70;;;21.70;99.90;;;;;;5011757;28;20091;-54
2022/08/13 01:07:29;;;;;;;14.48;6.82;;;21.70;99.90;;;;;;4677606;28;10000163;-54
2022/08/13 01:10:17;;;;;;;10.70;6.13;;;21.70;99.90;;;;;;5028047;28;20563;-54
2022/08/13 01:12:50;;;;;;;12.38;6.50;;;21.60;99.90;;;;;;5028562;28;20057;-55
2022/08/13 01:15:17;;;;;;;16.48;6.18;;;21.50;99.90;;;;;;5028237;28;20455;-52
2022/08/13 01:17:45;;;;;;;11.68;6.88;;;21.40;99.90;;;;;;5027151;28;20061;-53
2022/08/13 01:20:21;;;;;;;14.73;6.47;;;21.40;99.90;;;;;;5011193;28;20037;-50
2022/08/13 01:23:00;;;;;;;13.27;7.07;;;21.40;99.90;;;;;;5028596;28;20072;-55
2022/08/13 01:25:27;;;;;;;16.60;7.07;;;21.40;99.90;;;;;;5027975;28;20352;-53
2022/08/13 01:27:55;;;;;;;15.65;6.60;;;21.40;99.90;;;;;;5028529;28;20132;-56
2022/08/13 01:30:22;;;;;;;16.42;7.38;;;21.40;99.90;;;;;;5027526;28;20072;-54
2022/08/13 01:32:50;;;;;;;8.18;5.93;;;21.50;99.90;;;;;;5028126;28;20573;-55
2022/08/13 01:35:22;;;;;;;18.55;7.32;;;21.50;99.90;;;;;;5027042;28;20443;-53
2022/08/13 01:37:54;;;;;;;11.00;6.60;;;21.50;99.90;;;;;;5028272;28;20104;-54
2022/08/13 01:40:30;;;;;;;12.60;6.90;;;21.50;99.90;;;;;;5028056;28;20099;-56
2022/08/13 01:42:58;;;;;;;11.30;6.88;;;21.50;99.90;;;;;;5027882;28;20053;-55
2022/08/13 01:45:29;;;;;;;13.95;5.93;;;21.40;99.90;;;;;;5027873;28;20054;-52
2022/08/13 01:50:47;;;;;;;10.95;6.28;;;21.30;99.90;;;;;;5027800;28;20038;-57
2022/08/13 01:53:18;;;;;;;10.70;6.78;;;21.30;99.90;;;;;;5026895;28;20132;-55
2022/08/13 01:55:54;;;;;;;16.27;7.10;;;21.30;99.90;;;;;;5027777;28;20049;-53
2022/08/13 01:58:41;;;;;;;13.18;5.88;;;21.20;99.90;;;;;;5017669;28;20041;-53
2022/08/13 02:01:30;;;;;;;12.25;6.43;;;21.10;99.90;;;;;;5027670;28;20049;-52
2022/08/13 02:04:11;;;;;;;14.32;7.43;;;21.10;99.90;;;;;;5012238;28;20084;-56
2022/08/13 02:06:39;;;;;;;12.23;6.03;;;21.10;99.90;;;;;;5028709;28;20081;-55
2022/08/13 02:09:09;;;;;;;12.52;6.15;;;21.10;99.90;;;;;;5014773;28;20045;-56
2022/08/13 02:11:55;;;;;;;11.82;5.78;;;21.00;99.90;;;;;;5030236;28;20042;-54
2022/08/13 02:14:25;;;;;;;11.57;6.05;;;21.00;99.90;;;;;;5032293;28;20083;-54
2022/08/13 02:16:52;;;;;;;11.35;5.68;;;21.00;99.90;;;;;;5010613;28;20049;-55
2022/08/13 02:19:19;;;;;;;11.52;6.18;;;21.10;99.90;;;;;;5031821;28;20092;-52
2022/08/13 02:21:57;;;;;;;12.10;7.18;;;21.00;99.90;;;;;;5031256;28;20045;-54
2022/08/13 02:24:28;;;;;;;15.40;6.43;;;21.00;99.90;;;;;;4999821;28;20054;-54
2022/08/13 02:26:55;;;;;;;12.45;6.80;;;21.00;99.90;;;;;;5016798;28;20148;-55
2022/08/13 02:29:22;;;;;;;15.25;6.13;;;21.00;99.90;;;;;;5031695;28;20046;-54
2022/08/13 02:31:51;;;;;;;9.55;5.88;;;21.00;99.90;;;;;;5013856;28;20500;-54
2022/08/13 02:34:39;;;;;;;10.18;5.70;;;21.00;99.90;;;;;;5030699;28;20053;-54
2022/08/13 02:37:06;;;;;;;13.50;6.07;;;20.90;99.90;;;;;;5031311;28;20049;-52
2022/08/13 02:39:53;;;;;;;11.30;5.43;;;20.80;99.90;;;;;;5031437;28;20061;-55
2022/08/13 02:42:21;;;;;;;17.83;6.03;;;20.80;99.90;;;;;;5031158;28;20048;-54
2022/08/13 02:44:49;;;;;;;12.70;5.80;;;20.80;99.90;;;;;;5031261;28;20488;-53
2022/08/13 02:47:18;;;;;;;9.35;5.28;;;20.90;99.90;;;;;;5030987;28;20054;-53
2022/08/13 02:49:45;;;;;;;25.75;6.70;;;20.80;99.90;;;;;;5030303;28;20220;-55
2022/08/13 02:52:13;;;;;;;10.07;5.75;;;20.80;99.90;;;;;;5031095;28;20053;-55
2022/08/13 02:54:43;;;;;;;7.63;4.97;;;20.80;99.90;;;;;;5029949;28;20068;-55
2022/08/13 02:57:21;;;;;;;14.50;5.78;;;20.80;99.90;;;;;;5031132;28;20559;-56
2022/08/13 02:59:49;;;;;;;9.27;5.53;;;20.80;99.90;;;;;;5030956;28;20133;-56
2022/08/13 03:02:32;;;;;;;13.45;5.70;;;20.80;99.90;;;;;;5031283;28;20049;-54
2022/08/13 03:05:01;;;;;;;11.25;5.15;;;20.70;99.90;;;;;;5028556;28;20082;-53
2022/08/13 03:07:31;;;;;;;9.18;6.25;;;20.60;99.90;;;;;;5030886;28;20049;-54
2022/08/13 03:10:18;;;;;;;11.55;5.40;;;20.60;99.90;;;;;;5030576;28;20037;-55
2022/08/13 03:13:15;;;;;;;14.13;5.32;;;20.50;99.90;;;;;;5029809;28;20056;-56
2022/08/13 03:15:50;;;;;;;7.03;5.00;;;20.40;99.90;;;;;;5017109;28;20044;-53
2022/08/13 03:18:30;;;;;;;8.77;5.70;;;20.30;99.90;;;;;;5027970;28;20041;-55
2022/08/13 03:21:38;;;;;;;12.05;4.95;;;20.20;99.90;;;;;;5030627;28;20056;-55
2022/08/13 03:24:17;;;;;;;16.05;6.68;;;20.10;99.90;;;;;;5030407;28;20072;-54
2022/08/13 03:26:57;;;;;;;9.35;5.05;;;20.20;99.90;;;;;;5029377;28;20248;-56
2022/08/13 03:29:24;;;;;;;11.40;5.35;;;20.20;99.90;;;;;;5030120;28;20091;-56
2022/08/13 03:32:13;;;;;;;14.30;4.68;;;20.30;99.90;;;;;;5030566;28;20538;-54
2022/08/13 03:34:41;;;;;;;12.00;5.07;;;20.30;99.90;;;;;;5030313;28;20057;-53
2022/08/13 03:37:10;;;;;;;13.02;4.68;;;20.30;99.90;;;;;;5030835;28;20056;-53
2022/08/13 03:39:37;;;;;;;9.32;5.53;;;20.30;99.90;;;;;;5029872;28;20092;-54
2022/08/13 03:42:11;;;;;;;7.93;4.97;;;20.30;99.90;;;;;;5030519;28;20049;-52
2022/08/13 03:44:56;;;;;;;10.25;5.45;;;20.20;99.90;;;;;;5029922;28;20045;-55
2022/08/13 03:47:23;;;;;;;8.65;5.13;;;20.00;99.90;;;;;;5030100;28;20053;-51
2022/08/13 03:50:03;;;;;;;8.88;5.50;;;20.00;99.90;;;;;;5029630;28;20042;-54
2022/08/13 03:52:33;;;;;;;7.45;5.60;;;19.90;99.90;;;;;;5030410;28;20132;-54
2022/08/13 03:55:11;;;;;;;9.20;5.07;;;20.00;99.90;;;;;;5029412;28;20568;-53
2022/08/13 03:57:44;;;;;;;9.05;4.63;;;19.90;99.90;;;;;;5019960;28;20049;-53
2022/08/13 04:00:30;;;;;;;7.20;4.72;;;19.90;99.90;;;;;;5029408;28;20059;-53
2022/08/13 04:02:58;;;;;;;10.93;6.10;;;19.80;99.90;;;;;;5027333;28;20080;-54
2022/08/13 04:05:25;;;;;;;9.98;4.80;;;19.80;99.90;;;;;;5029495;28;20093;-52
2022/08/13 04:08:12;;;;;;;7.55;4.75;;;19.80;99.90;;;;;;5021364;28;20081;-52
2022/08/13 04:10:41;;;;;;;12.63;5.40;;;19.80;99.90;;;;;;5029361;28;20128;-54
2022/08/13 04:13:20;;;;;;;11.20;5.53;;;19.70;99.90;;;;;;5029559;28;20046;-55
2022/08/13 04:16:12;;;;;;;7.85;5.47;;;19.70;99.90;;;;;;5029323;28;20051;-55
2022/08/13 04:18:41;;;;;;;8.07;5.15;;;19.60;99.90;;;;;;5029538;28;20049;-54
2022/08/13 04:21:10;;;;;;;8.15;5.47;;;19.60;99.90;;;;;;5027787;28;20105;-52
2022/08/13 04:23:43;;;;;;;10.75;5.63;;;19.60;99.90;;;;;;5029364;28;20051;-55
2022/08/13 04:26:16;;;;;;;7.20;5.20;;;19.50;99.90;;;;;;5028843;28;20042;-53
2022/08/13 04:28:57;;;;;;;11.38;5.00;;;19.50;99.90;;;;;;5029195;28;20500;-54
2022/08/13 04:31:24;;;;;;;9.90;4.88;;;19.40;99.90;;;;;;5028853;28;20103;-55
2022/08/13 04:34:11;;;;;;;9.05;5.00;;;19.40;99.90;;;;;;5029445;28;20130;-53
2022/08/13 04:36:57;;;;;;;6.95;4.85;;;19.30;99.90;;;;;;5029016;28;20053;-54
2022/08/13 04:39:26;;;;;;;7.72;5.07;;;19.30;99.90;;;;;;5029193;28;20048;-51
2022/08/13 04:42:13;;;;;;;7.38;5.22;;;19.30;99.90;;;;;;5029136;28;20105;-55
2022/08/13 04:44:58;;;;;;;8.98;4.75;;;19.30;99.90;;;;;;5028924;28;20057;-50
2022/08/13 04:47:30;;;;;;;9.70;5.30;;;19.30;99.90;;;;;;5028401;28;20057;-55
2022/08/13 04:49:57;;;;;;;14.00;5.10;;;19.30;99.90;;;;;;5029003;28;20045;-52
2022/08/13 04:52:24;;;;;;;7.90;4.28;;;19.30;99.90;;;;;;5028598;28;20053;-54
2022/08/13 04:54:56;;;;;;;7.07;4.40;;;19.30;99.90;;;;;;5029267;28;20311;-55
2022/08/13 04:57:23;;;;;;;9.35;4.95;;;19.30;99.90;;;;;;5028570;28;20088;-55
2022/08/13 05:00:10;;;;;;;7.50;4.80;;;19.30;99.90;;;;;;5029054;28;20056;-55
2022/08/13 05:02:40;;;;;;;7.78;4.53;;;19.20;99.90;;;;;;5028325;28;20526;-54
2022/08/13 05:05:14;;;;;;;6.65;4.40;;;19.20;99.90;;;;;;5028641;28;20485;-53
2022/08/13 05:07:47;;;;;;;7.80;4.40;;;19.20;99.90;;;;;;5028069;28;20045;-55
2022/08/13 05:10:21;;;;;;;7.30;4.13;;;19.10;99.90;;;;;;5028599;28;20046;-55
2022/08/13 05:13:01;;;;;;;11.43;5.32;;;19.20;99.90;;;;;;5028017;28;20091;-58
2022/08/13 05:15:29;;;;;;;13.07;5.10;;;19.10;99.90;;;;;;5028502;28;20053;-56
2022/08/13 05:18:14;;;;;;;10.48;4.47;;;19.20;99.90;;;;;;5028098;28;20045;-52
2022/08/13 05:20:53;;;;;;;12.98;4.55;;;19.10;99.90;;;;;;5028622;28;20132;-51
2022/08/13 05:23:21;;;;;;;14.73;5.68;;;19.20;99.90;;;;;;5026662;28;20045;-53
2022/08/13 05:26:10;;;;;;;7.75;4.80;;;19.10;99.90;;;;;;5028058;28;20046;-54
2022/08/13 05:28:58;;;;;;;7.43;4.80;;;19.10;99.90;;;;;;5028001;28;20065;-52
2022/08/13 05:31:28;;;;;;;8.55;5.28;;;19.00;99.90;;;;;;5028165;28;20158;-55
2022/08/13 05:34:03;;;;;;;9.88;5.57;;;19.00;99.90;;;;;;5027884;28;20151;-55
2022/08/13 05:36:32;;;;;;;13.32;5.35;;;19.10;99.90;;;;;;5011073;28;20064;-55
2022/08/13 05:39:18;;;;;;;8.07;5.32;;;19.10;99.90;;;;;;5027796;28;20049;-53
2022/08/13 05:41:48;;;;;;;12.18;5.10;;;19.10;99.90;;;;;;5027337;28;20049;-56
2022/08/13 05:44:33;;;;;;;9.88;5.88;;;19.20;99.90;;;;;;5027709;28;20056;-55
2022/08/13 05:47:03;;;;;;;8.23;5.05;;;19.30;99.90;;;;;;5028038;28;20493;-53
2022/08/13 05:49:30;;;;;;;11.00;5.63;;;19.40;99.90;;;;;;5028052;28;20045;-53
2022/08/13 05:52:17;;;;;;;11.70;5.47;;;19.40;99.90;;;;;;5028019;28;20781;-54
2022/08/13 05:55:09;;;;;;;10.75;5.80;;;19.40;99.90;;;;;;5027301;28;20060;-56
2022/08/13 05:57:57;;;;;;;9.63;5.28;;;19.50;99.90;;;;;;5008622;28;20453;-55
2022/08/13 06:06:16;;;;;;;10.77;5.53;;;19.70;99.90;;;;;;5026473;28;20080;-56
2022/08/13 06:08:50;;;;;;;6.97;4.93;;;19.80;99.90;;;;;;5027707;28;20504;-54
2022/08/13 06:11:17;;;;;;;12.25;4.70;;;19.90;99.90;;;;;;5027598;28;20077;-57
2022/08/13 06:14:04;;;;;;;15.82;6.50;;;20.00;99.90;;;;;;5027703;28;20052;-52
2022/08/13 06:16:33;;;;;;;10.13;6.00;;;20.10;99.90;;;;;;5027610;28;20144;-53
2022/08/13 06:19:25;;;;;;;8.38;5.68;;;20.20;99.90;;;;;;5027227;28;20051;-53
2022/08/13 06:21:55;;;;;;;10.65;5.43;;;20.20;99.90;;;;;;5022477;28;20050;-54
2022/08/13 06:24:27;;;;;;;11.38;4.82;;;20.30;99.90;;;;;;5008163;28;20065;-55
2022/08/13 06:26:55;;;;;;;14.80;5.20;;;20.40;99.90;;;;;;5027413;28;20045;-54
2022/08/13 06:29:23;;;;;;;10.32;4.60;;;20.40;99.90;;;;;;5027704;28;20103;-54
2022/08/13 06:31:55;;;;;;;14.97;5.83;;;20.50;99.90;;;;;;5026112;28;20427;-55
2022/08/13 06:34:24;;;;;;;12.50;5.57;;;20.60;99.90;;;;;;5026018;28;20132;-52
2022/08/13 06:37:03;;;;;;;12.60;4.72;;;20.70;99.90;;;;;;5011271;28;20042;-54
2022/08/13 06:39:31;;;;;;;11.80;5.35;;;20.80;99.90;;;;;;5027719;28;20408;-55
2022/08/13 06:42:02;;;;;;;10.82;4.35;;;20.80;99.90;;;;;;5027023;28;20662;-55
2022/08/13 06:44:31;;;;;;;13.63;4.72;;;20.90;99.90;;;;;;5028008;28;20052;-56
2022/08/13 06:47:03;;;;;;;7.18;4.43;;;21.00;99.90;;;;;;5027106;28;20305;-56
2022/08/13 06:49:31;;;;;;;10.93;5.57;;;21.00;99.90;;;;;;5027614;28;20132;-54
2022/08/13 06:52:18;;;;;;;13.75;4.43;;;21.00;99.90;;;;;;5027709;28;20045;-53
2022/08/13 06:54:45;;;;;;;15.38;5.10;;;21.10;99.90;;;;;;5025033;28;20279;-55
2022/08/13 06:57:17;;;;;;;17.27;5.35;;;21.20;99.90;;;;;;5027408;28;20647;-54
2022/08/13 06:59:52;;;;;;;9.88;4.35;;;21.20;99.90;;;;;;5002559;28;20053;-54
2022/08/13 07:02:42;;;;;;;12.93;5.30;;;21.40;99.90;;;;;;5023214;28;20042;-51
2022/08/13 07:05:10;;;;;;;11.90;4.68;;;21.40;99.90;;;;;;5030968;28;20095;-55
2022/08/13 07:07:45;;;;;;;10.30;4.43;;;21.40;99.90;;;;;;5030429;28;20049;-54
2022/08/13 07:10:13;;;;;;;13.55;4.53;;;21.50;99.90;;;;;;5011952;28;20413;-51
2022/08/13 07:12:42;;;;;;;10.93;4.80;;;21.50;99.90;;;;;;5029765;28;21072;-52
2022/08/13 07:15:13;;;;;;;12.80;5.68;;;21.60;99.90;;;;;;5024241;28;20069;-54
2022/08/13 07:18:00;;;;;;;13.85;5.18;;;21.60;99.90;;;;;;5027302;28;20072;-52
2022/08/13 07:20:29;;;;;;;14.57;5.43;;;21.70;99.90;;;;;;5030144;28;20385;-53
2022/08/13 07:22:56;;;;;;;8.75;4.13;;;21.70;99.90;;;;;;5012481;28;20049;-50
2022/08/13 07:25:44;;;;;;;20.63;5.00;;;21.80;99.90;;;;;;4999693;28;20049;-51
2022/08/13 07:28:26;;;;;;;7.03;4.40;;;21.90;99.90;;;;;;5014477;28;20061;-52
2022/08/13 07:31:13;;;;;;;10.43;5.07;;;22.00;99.90;;;;;;5009499;28;20049;-53
2022/08/13 07:33:49;;;;;;;11.23;4.57;;;22.00;99.90;;;;;;5028127;28;20045;-51
2022/08/13 07:36:25;;;;;;;16.75;4.38;;;22.10;99.90;;;;;;4994653;28;20079;-55
2022/08/13 07:38:52;;;;;;;11.50;5.18;;;22.10;99.90;;;;;;5028372;28;20060;-53
2022/08/13 07:41:20;;;;;;;13.27;5.70;;;22.20;99.90;;;;;;5030571;28;20086;-53
2022/08/13 07:43:47;;;;;;;13.93;4.53;;;22.30;99.90;;;;;;5012451;28;20061;-52
2022/08/13 07:46:34;;;;;;;9.68;4.47;;;22.40;99.90;;;;;;5010500;28;20092;-52
2022/08/13 07:49:00;;;;;;;15.38;5.25;;;22.50;99.90;;;;;;5026443;28;20516;-52
2022/08/13 07:51:30;;;;;;;22.67;4.72;;;22.50;99.90;;;;;;5008924;28;20065;-54
2022/08/13 07:54:06;;;;;;;13.02;4.22;;;22.60;99.90;;;;;;5019865;28;20137;-56
2022/08/13 07:56:35;;;;;;;12.70;5.00;;;22.70;99.90;;;;;;5022508;28;20076;-54
2022/08/13 07:59:07;;;;;;;12.18;3.65;;;22.70;99.90;;;;;;5023816;28;20049;-53
2022/08/13 08:01:48;;;;;;;10.02;4.38;;;22.80;99.90;;;;;;5023808;28;20300;-54
2022/08/13 08:04:37;;;;;;;14.00;3.80;;;22.90;99.90;;;;;;5024466;28;20050;-52
2022/08/13 08:07:06;;;;;;;14.80;4.10;;;22.90;99.90;;;;;;5027838;28;20136;-54
2022/08/13 08:09:36;;;;;;;14.38;4.88;;;23.00;99.90;;;;;;5028365;28;20063;-54
2022/08/13 08:14:54;;;;;;;14.75;4.57;;;23.20;99.50;;;;;;5027177;28;20045;-54
2022/08/13 08:17:24;;;;;;;12.25;4.60;;;23.30;99.30;;;;;;5027679;28;20128;-55
2022/08/13 08:20:17;;;;;;;13.35;5.05;;;23.50;99.00;;;;;;5019294;28;20100;-54
2022/08/13 08:22:49;;;;;;;7.13;3.65;;;23.60;98.40;;;;;;5006521;28;20467;-51
2022/08/13 08:25:21;;;;;;;6.50;4.15;;;23.60;98.10;;;;;;5019257;28;20051;-49
2022/08/13 08:27:48;;;;;;;15.35;4.47;;;23.70;97.90;;;;;;5023705;28;20050;-52
2022/08/13 08:30:33;;;;;;;17.02;4.40;;;23.70;97.70;;;;;;5026547;28;20111;-54
2022/08/13 08:33:00;;;;;;;18.13;4.57;;;23.80;97.30;;;;;;5027628;28;20084;-55
2022/08/13 08:35:28;;;;;;;14.27;4.75;;;23.90;96.90;;;;;;5026370;28;20061;-55
2022/08/13 08:43:49;;;;;;;16.95;5.88;;;24.10;96.10;;;;;;5012281;28;20124;-54
2022/08/13 08:46:16;;;;;;;9.68;4.18;;;24.20;96.00;;;;;;5026802;28;20233;-55
2022/08/13 08:48:43;;;;;;;25.17;4.15;;;24.30;95.70;;;;;;5028244;28;20053;-53
2022/08/13 08:51:21;;;;;;;16.60;4.85;;;24.40;95.60;;;;;;5028014;28;20459;-55
2022/08/13 08:53:48;;;;;;;10.43;4.20;;;24.50;95.20;;;;;;5028257;28;20125;-56
2022/08/13 08:56:35;;;;;;;9.65;4.75;;;24.50;94.80;;;;;;5027584;28;20083;-51
2022/08/13 08:59:09;;;;;;;11.55;4.30;;;24.60;94.60;;;;;;5027112;28;20048;-53
2022/08/13 09:01:51;;;;;;;10.05;3.80;;;24.70;94.10;;;;;;5027655;28;20049;-50
2022/08/13 09:04:28;;;;;;;10.57;3.83;;;24.80;93.70;;;;;;5028108;28;20584;-51
2022/08/13 09:07:15;;;;;;;9.55;3.45;;;24.80;93.40;;;;;;5027639;28;20047;-53
2022/08/13 09:09:43;;;;;;;12.80;5.13;;;24.90;93.30;;;;;;5026720;28;20397;-54
2022/08/13 09:12:14;;;;;;;14.55;4.43;;;25.00;93.20;;;;;;5026371;28;20073;-54
2022/08/13 09:14:40;;;;;;;8.55;3.70;;;25.10;92.60;;;;;;5027977;28;20132;-53
2022/08/13 09:17:07;;;;;;;14.90;4.18;;;25.20;92.40;;;;;;5009716;28;20081;-53
2022/08/13 09:19:40;;;;;;;7.00;2.83;;;25.40;91.90;;;;;;5006875;28;20054;-55
2022/08/13 09:22:20;;;;;;;14.60;5.97;;;25.50;91.50;;;;;;5025256;28;20095;-51
2022/08/13 09:24:56;;;;;;;17.23;5.03;;;25.60;90.70;;;;;;5007088;28;20054;-52
2022/08/13 09:27:30;;;;;;;13.18;3.30;;;25.70;89.90;;;;;;5024998;28;20063;-53
2022/08/13 09:30:17;;;;;;;13.23;3.13;;;25.70;87.80;;;;;;5027403;28;20500;-56
2022/08/13 09:32:52;;;;;;;12.65;3.60;;;25.80;88.60;;;;;;5025698;28;20144;-54
2022/08/13 09:35:19;;;;;;;6.68;2.88;;;25.90;86.30;;;;;;5026322;28;20099;-53
2022/08/13 09:37:48;;;;;;;12.07;3.70;;;26.00;86.60;;;;;;5027085;28;20119;-53
2022/08/13 09:40:22;;;;;;;16.08;5.00;;;26.10;84.80;;;;;;5021821;28;20141;-55
2022/08/13 09:43:14;;;;;;;23.75;4.55;;;26.20;84.50;;;;;;5026306;28;20152;-54
2022/08/13 09:46:01;;;;;;;11.38;3.22;;;26.30;81.90;;;;;;5026771;28;20045;-55
2022/08/13 09:48:29;;;;;;;8.63;2.65;;;26.40;81.20;;;;;;5024890;28;20108;-55
2022/08/13 09:51:02;;;;;;;13.65;3.63;;;26.60;80.30;;;;;;5027696;28;20127;-50
2022/08/13 09:53:33;;;;;;;13.07;3.97;;;27.00;79.70;;;;;;5027186;28;20076;-54
2022/08/13 09:56:01;;;;;;;8.55;3.28;;;27.40;78.40;;;;;;5027185;28;20512;-57
2022/08/13 09:58:30;;;;;;;7.82;2.58;;;27.90;76.60;;;;;;5027061;28;20668;-57
2022/08/13 10:01:04;;;;;;;13.30;2.88;;;28.20;74.70;;;;;;5027383;28;20049;-54
2022/08/13 10:03:42;;;;;;;8.63;3.70;;;28.50;73.10;;;;;;5027222;28;20076;-52
2022/08/13 10:06:09;;;;;;;14.00;3.60;;;28.80;70.60;;;;;;5007699;28;20045;-56
2022/08/13 10:08:37;;;;;;;13.40;3.05;;;29.20;69.60;;;;;;5009299;28;20300;-56
2022/08/13 10:11:08;;;;;;;14.52;3.22;;;29.40;65.20;;;;;;5027394;28;20049;-55
2022/08/13 10:13:41;;;;;;;5.38;2.72;;;29.60;66.20;;;;;;5027312;28;20128;-54
2022/08/13 10:16:17;;;;;;;11.60;3.22;;;29.60;65.60;;;;;;5023691;28;20142;-54
2022/08/13 10:18:46;;;;;;;13.43;3.78;;;29.90;64.70;;;;;;5026860;28;20492;-55
2022/08/13 10:21:15;;;;;;;7.80;2.10;;;30.00;62.60;;;;;;5027906;28;20045;-55
2022/08/13 10:23:47;;;;;;;25.25;3.28;;;30.00;60.80;;;;;;5026838;28;20046;-55
2022/08/13 10:26:19;;;;;;;9.32;3.03;;;30.20;61.10;;;;;;5027170;28;20041;-53
2022/08/13 10:28:47;;;;;;;12.80;3.05;;;30.40;59.30;;;;;;5029679;28;20050;-56
2022/08/13 10:31:16;;;;;;;15.93;3.65;;;30.50;58.20;;;;;;5031175;28;20076;-57
2022/08/13 10:34:03;;;;;;;8.70;2.33;;;30.50;58.80;;;;;;5030785;28;20559;-55
2022/08/13 10:36:32;;;;;;;10.48;2.58;;;30.60;58.90;;;;;;5029608;28;20503;-54
2022/08/13 10:39:04;;;;;;;13.02;3.28;;;30.70;58.90;;;;;;5030650;28;20045;-57
2022/08/13 10:41:35;;;;;;;9.13;2.90;;;30.80;57.80;;;;;;5031142;28;20435;-56
2022/08/13 10:44:21;;;;;;;4.15;2.33;;;30.50;58.80;;;;;;5030244;28;20528;-56
2022/08/13 10:46:54;;;;;;;7.20;2.72;;;30.30;57.70;;;;;;5030832;28;20550;-56
2022/08/13 10:49:22;;;;;;;11.60;2.30;;;30.00;58.60;;;;;;5030631;28;20334;-59
2022/08/13 10:51:49;;;;;;;9.70;2.58;;;29.80;58.90;;;;;;5030661;28;20197;-56
2022/08/13 10:54:30;;;;;;;7.68;3.30;;;29.70;59.20;;;;;;5030031;28;20431;-58
2022/08/13 10:56:58;;;;;;;6.35;2.42;;;29.60;59.40;;;;;;5030746;28;20049;-56
2022/08/13 10:59:25;;;;;;;13.30;2.88;;;29.50;59.80;;;;;;5029499;28;20096;-54
2022/08/13 11:01:52;;;;;;;14.68;3.30;;;29.40;59.70;;;;;;5030682;28;20116;-54
2022/08/13 11:04:19;;;;;;;5.93;2.28;;;29.40;59.90;;;;;;5028459;28;20491;-57
2022/08/13 11:06:55;;;;;;;7.38;2.50;;;29.40;60.40;;;;;;5021880;28;20050;-53
2022/08/13 11:09:26;;;;;;;4.78;2.47;;;29.40;59.60;;;;;;5029856;28;20049;-53
2022/08/13 11:12:02;;;;;;;5.15;2.08;;;29.30;58.70;;;;;;5019838;28;20053;-57
2022/08/13 11:14:29;;;;;;;7.40;2.55;;;29.30;58.40;;;;;;5029648;28;20092;-55
2022/08/13 11:17:04;;;;;;;9.30;2.90;;;29.20;58.30;;;;;;5030688;28;20391;-56
2022/08/13 11:19:52;;;;;;;6.03;2.33;;;29.20;58.80;;;;;;5015177;28;20052;-57
2022/08/13 11:22:20;;;;;;;7.95;2.53;;;29.10;59.00;;;;;;5029779;28;20144;-56
2022/08/13 11:25:03;;;;;;;5.03;2.58;;;29.10;58.50;;;;;;5029676;28;20048;-57
2022/08/13 11:27:50;;;;;;;12.02;4.03;;;29.20;58.50;;;;;;5020935;28;20132;-54
2022/08/13 11:30:19;;;;;;;7.20;2.92;;;29.30;58.20;;;;;;5029499;28;20601;-55
2022/08/13 11:33:03;;;;;;;8.55;2.97;;;29.20;58.20;;;;;;5030243;28;20102;-55
2022/08/13 11:35:35;;;;;;;6.32;3.00;;;29.20;58.40;;;;;;5030222;28;20049;-54
2022/08/13 11:38:10;;;;;;;7.85;2.92;;;29.10;58.50;;;;;;5030363;28;20555;-54
2022/08/13 11:40:39;;;;;;;4.93;2.30;;;29.20;57.90;;;;;;5028215;28;20484;-57
2022/08/13 11:43:06;;;;;;;8.18;3.47;;;29.30;58.80;;;;;;5029498;28;20302;-53
2022/08/13 11:45:43;;;;;;;7.82;2.63;;;29.40;58.60;;;;;;5029442;28;20429;-54
2022/08/13 11:48:14;;;;;;;5.22;2.42;;;29.50;59.10;;;;;;5019248;28;20249;-54
2022/08/13 11:50:55;;;;;;;12.07;3.42;;;29.50;59.50;;;;;;5029344;28;20049;-56
2022/08/13 11:53:22;;;;;;;3.70;1.90;;;29.70;58.70;;;;;;5018577;28;20077;-56
2022/08/13 11:55:50;;;;;;;7.03;2.95;;;29.70;58.60;;;;;;5028923;28;20064;-56
2022/08/13 11:58:26;;;;;;;11.07;3.05;;;29.80;57.80;;;;;;5029701;28;20308;-53
2022/08/13 12:01:16;;;;;;;6.13;1.98;;;29.90;57.50;;;;;;5028034;28;20408;-55
2022/08/13 12:03:43;;;;;;;7.13;2.72;;;30.00;57.80;;;;;;4670091;28;9999881;-56
2022/08/13 12:06:30;;;;;;;5.78;2.13;;;30.10;57.20;;;;;;5025730;28;20056;-57
2022/08/13 12:08:57;;;;;;;5.80;2.47;;;30.30;55.70;;;;;;5025504;28;20119;-56
2022/08/13 12:11:44;;;;;;;8.10;2.33;;;30.40;55.40;;;;;;5025253;28;20508;-56
2022/08/13 12:14:30;;;;;;;8.85;2.42;;;30.50;54.00;;;;;;5024808;28;20057;-54
2022/08/13 12:16:59;;;;;;;8.95;2.00;;;30.50;54.00;;;;;;5024742;28;20421;-56
2022/08/13 12:19:27;;;;;;;3.65;2.17;;;30.50;54.20;;;;;;5025412;28;20578;-57
2022/08/13 12:21:54;;;;;;;4.45;2.47;;;30.50;53.70;;;;;;5024763;28;20562;-61
2022/08/13 12:24:21;;;;;;;8.40;2.50;;;30.60;53.10;;;;;;5024682;28;20054;-55
2022/08/13 12:27:00;;;;;;;7.18;2.92;;;30.60;52.80;;;;;;5024284;28;20103;-55
2022/08/13 12:29:29;;;;;;;4.07;1.83;;;30.70;53.00;;;;;;5024801;28;20045;-55
2022/08/13 12:32:11;;;;;;;2.70;1.30;;;30.80;52.10;;;;;;5023420;28;20538;-61
2022/08/13 12:34:40;;;;;;;11.95;2.50;;;30.90;51.00;;;;;;5023479;28;20308;-55
2022/08/13 12:37:08;;;;;;;6.50;2.20;;;31.10;50.90;;;;;;5023623;28;20503;-54
2022/08/13 12:39:52;;;;;;;6.03;2.42;;;31.20;50.30;;;;;;5024487;28;20058;-56
2022/08/13 12:42:25;;;;;;;10.07;2.67;;;31.20;49.40;;;;;;5024210;28;20412;-54
2022/08/13 12:44:55;;;;;;;6.47;1.98;;;31.20;49.00;;;;;;5023487;28;20079;-54
2022/08/13 12:47:40;;;;;;;5.43;2.08;;;31.20;49.70;;;;;;5004911;28;20072;-57
2022/08/13 12:50:16;;;;;;;4.25;1.83;;;31.30;48.30;;;;;;5014420;28;20053;-54
2022/08/13 12:52:47;;;;;;;11.52;2.05;;;31.40;49.20;;;;;;5012194;28;20045;-56
2022/08/13 12:55:15;;;;;;;4.40;1.75;;;31.40;48.70;;;;;;4999570;28;20053;-56
2022/08/13 12:57:51;;;;;;;4.50;1.80;;;31.50;48.10;;;;;;5014397;28;20088;-57
2022/08/13 13:00:31;;;;;;;5.22;1.95;;;31.50;47.40;;;;;;5012154;28;20046;-54
2022/08/13 13:03:00;;;;;;;10.95;2.10;;;31.50;47.20;;;;;;5022559;28;20045;-52
2022/08/13 13:05:29;;;;;;;4.95;1.80;;;31.60;46.60;;;;;;5023617;28;20500;-56
2022/08/13 13:08:26;;;;;;;5.97;2.47;;;31.60;45.50;;;;;;5022216;28;20057;-56
2022/08/13 13:11:08;;;;;;;5.45;2.22;;;31.80;43.60;;;;;;5024204;28;20142;-53
2022/08/13 13:13:42;;;;;;;4.93;2.30;;;31.80;44.80;;;;;;5006960;28;20042;-57
2022/08/13 13:16:25;;;;;;;3.42;1.55;;;31.80;44.90;;;;;;5016231;28;20057;-55
2022/08/13 13:19:06;;;;;;;3.60;1.73;;;31.90;45.50;;;;;;5025093;28;20049;-57
2022/08/13 13:21:45;;;;;;;10.32;1.90;;;31.90;43.80;;;;;;5027094;28;20056;-55
2022/08/13 13:24:15;;;;;;;4.53;1.65;;;31.90;44.20;;;;;;5027484;28;20107;-56
2022/08/13 13:26:51;;;;;;;9.43;1.98;;;32.10;43.90;;;;;;5026778;28;20432;-55
2022/08/13 13:29:36;;;;;;;4.28;1.55;;;32.30;42.00;;;;;;5026662;28;20060;-56
2022/08/13 13:32:13;;;;;;;5.40;1.92;;;32.40;42.80;;;;;;5028050;28;20132;-54
2022/08/13 13:35:00;;;;;;;4.68;1.70;;;32.40;40.70;;;;;;5027393;28;20550;-57